LEMGGMMX

Guest
Details From LEMG - Malaga
To GMMX - MENARA
Flight Number -
Tags decoded
Created
Modified
Stats Distance 352 nm / 651 km
Max Altitude 0 ft / 0 m
Waypoints 4
Social Downloads 3
Likes 0
Share VATSIM

Download

Looking for another format? Having issues loading an existing format? Contact us
Advertisement - Login to hide

Notes

Requested: LEMG PIMOS B11 GALTO UN869 SLK UB11 PELAX UN869 MABAP GMMX Unmatched points: UN869 UB11 PELAX UN869 MABAP

Route

LEMG PIMOS B11 GALTO GMMX

ID Type Via Altitude Latitude Longitude Leg Dist Tot Dist Heading (true) Name
O LEMG APT - 0 ft / 0 m 36.67978˚ -4.49590˚ - 0 nm - Malaga
PIMOS FIX - 0 ft / 0 m 36.15027˚ -4.89346˚ 37 nm 37 nm 211° / 211° -
GALTO FIX B11 (AWY-LO) 0 ft / 0 m 35.83333˚ -5.14361˚ 22 nm 59 nm 213° / 212° -
O GMMX APT - 0 ft / 0 m 31.60692˚ -8.03627˚ 292 nm 351 nm 210° / 209° MENARA

Altitude Profile

Advertisement - Login to hide

Weather


0- 5 10 15 20 25 30 35+ Temperature / ° C

Clouds and Precipitation
Forecast for 2018-05-27 06:00 UTC. Updated 3 hours ago

Ground ~20,000 ft ~40,000 ft Winds

LEMG

Details ICAO LEMG (AGP)
Name Malaga
Region Spain
Timezone Europe/Madrid (UTC+2.0)
Stats Elevation 52 ft / 16 m (AMSL)
Location 36.679780° -4.495899°
Runways 2
Magnetic Variation 0.826° W

METAR

LEMG 270830Z VRB02KT 9999 FEW010 21/16 Q1015 NOSIG

Decode

TAF

TAF TAF LEMG 270500Z 2706/2806 VRB02KT 9999 SCT030 TX26/2714Z TN16/2805Z BECMG 2710/2713 20012KT PROB40 TEMPO 2709/2711 14006KT PROB40 TEMPO 2713/2719 20015G25KT BECMG 2719/2721 29004KT

Decode

Departure Runways

ID Width Length Bearing (true) Bearing (mag) Surface Threshold Offset Overrun Length
12 148 ft / 45 m 10,057 ft / 3,065 m 117.76° 118.59° Asphalt 0 ft / 0 m 650 ft / 198 m
13 148 ft / 45 m 10,509 ft / 3,203 m 131.69° 132.52° Asphalt 0 ft / 0 m 246 ft / 75 m
30 148 ft / 45 m 10,057 ft / 3,065 m 297.78° 298.61° Asphalt 1,115 ft / 340 m 466 ft / 142 m
31 148 ft / 45 m 10,509 ft / 3,203 m 311.70° 312.53° Asphalt 0 ft / 0 m 246 ft / 75 m

GMMX

Details ICAO GMMX (RAK)
Name MENARA
Region Morocco
Timezone Africa/Casablanca (UTC+0.0)
Stats Elevation 1,545 ft / 471 m (AMSL)
Location 31.606920° -8.036265°
Runways 1
Magnetic Variation 1.950° W

METAR

GMMX 270830Z VRB02KT 9999 BKN026 18/12 Q1018 NOSIG

Decode

TAF

TAF GMMX 270500Z 2706/2812 30006KT 8000 BKN020 TEMPO 2714/2721 34014KT

Decode

Destination Runways

ID Width Length Bearing (true) Bearing (mag) Surface Threshold Offset Overrun Length
10 148 ft / 45 m 10,169 ft / 3,100 m 95.99° 97.94° Asphalt 918 ft / 280 m 0 ft / 0 m
28 148 ft / 45 m 10,169 ft / 3,100 m 276.00° 277.95° Asphalt 0 ft / 0 m 0 ft / 0 m

Approach Navaids

Runway Type Ident Frequency Range Bearing (true) Bearing (mag) Slope Elevation
10 Localiser MAR 109.70 MHz 18 nm / 33 km 96.03° 97.97° - 1,545 ft / 471 m (AMSL)
10 Glidescope MAR 109.70 MHz 10 nm / 19 km 96.00° 97.95° 3.00° 1,558 ft / 475 m (AMSL)

Popular Alternatives